createdAt,value
2023-05-10T00:00:23.594Z,8.60
2023-05-10T00:05:46.615Z,8.51
2023-05-10T00:10:50.980Z,9.10
2023-05-10T00:15:56.259Z,9.09
2023-05-10T00:21:00.119Z,8.64
2023-05-10T00:26:04.163Z,8.77
2023-05-10T00:31:09.531Z,9.01
2023-05-10T00:36:13.508Z,7.62
2023-05-10T00:41:18.810Z,6.39
2023-05-10T00:46:25.250Z,5.49
2023-05-10T00:51:29.234Z,5.06
2023-05-10T00:56:33.692Z,4.83
2023-05-10T01:01:40.043Z,5.46
2023-05-10T01:06:44.479Z,5.78
2023-05-10T01:11:49.452Z,5.60
2023-05-10T01:16:55.406Z,5.04
2023-05-10T01:22:04.364Z,5.42
2023-05-10T01:27:28.683Z,5.44
2023-05-10T01:32:38.932Z,5.73
2023-05-10T01:37:47.568Z,5.60
2023-05-10T01:42:56.597Z,6.02
2023-05-10T01:48:08.542Z,5.54
2023-05-10T01:53:15.248Z,5.24
2023-05-10T01:58:23.328Z,5.27
2023-05-10T02:03:31.509Z,5.55
2023-05-10T02:08:38.213Z,5.04
2023-05-10T02:13:44.591Z,5.96
2023-05-10T02:18:52.546Z,5.99
2023-05-10T02:23:57.502Z,5.81
2023-05-10T02:29:04.385Z,5.44
2023-05-10T02:34:11.748Z,5.53
2023-05-10T02:39:17.812Z,5.49
2023-05-10T02:44:23.138Z,5.16
2023-05-10T02:49:28.539Z,4.98
2023-05-10T02:54:35.333Z,4.78
2023-05-10T02:59:39.240Z,4.97
2023-05-10T03:04:44.590Z,5.57
2023-05-10T03:09:51.130Z,5.38
2023-05-10T03:15:13.343Z,5.35
2023-05-10T03:20:26.767Z,5.23
2023-05-10T03:25:33.281Z,5.14
2023-05-10T03:30:39.421Z,5.61
2023-05-10T03:35:46.836Z,5.28
2023-05-10T03:40:51.804Z,4.94
2023-05-10T03:45:55.851Z,5.67
2023-05-10T03:51:01.276Z,6.56
2023-05-10T03:56:05.556Z,6.64
2023-05-10T04:01:09.632Z,6.72
2023-05-10T04:06:15.090Z,6.17
2023-05-10T04:11:19.127Z,6.55
2023-05-10T04:16:23.014Z,6.79
2023-05-10T04:21:28.455Z,8.43
2023-05-10T04:26:32.412Z,8.11
2023-05-10T04:31:37.367Z,7.87
2023-05-10T04:36:42.660Z,7.76
2023-05-10T04:41:46.593Z,7.89
2023-05-10T04:46:50.506Z,7.99
2023-05-10T04:51:56.075Z,8.14
2023-05-10T04:57:00.034Z,8.75
2023-05-10T05:02:04.583Z,9.10
2023-05-10T05:07:10.049Z,9.67
2023-05-10T05:12:15.338Z,10.36
2023-05-10T05:17:19.511Z,10.82
2023-05-10T05:22:28.517Z,10.18
2023-05-10T05:27:32.482Z,10.77
2023-05-10T05:32:36.853Z,10.77
2023-05-10T05:37:42.222Z,11.30
2023-05-10T05:42:46.156Z,10.67
2023-05-10T05:47:50.187Z,10.91
2023-05-10T05:52:55.534Z,11.65
2023-05-10T05:57:59.419Z,12.40
2023-05-10T06:03:03.501Z,13.61
2023-05-10T06:08:08.908Z,14.56
2023-05-10T06:13:12.959Z,13.38
2023-05-10T06:18:16.944Z,12.97
2023-05-10T06:23:23.277Z,13.93
2023-05-10T06:28:27.172Z,15.02
2023-05-10T06:33:31.112Z,16.01
2023-05-10T06:38:36.498Z,15.44
2023-05-10T06:43:42.288Z,14.76
2023-05-10T06:48:45.908Z,14.64
2023-05-10T06:53:51.222Z,14.22
2023-05-10T06:58:55.267Z,14.54
2023-05-10T07:03:59.160Z,15.13
2023-05-10T07:09:04.829Z,14.67
2023-05-10T07:14:08.821Z,13.78
2023-05-10T07:19:12.783Z,14.11
2023-05-10T07:24:18.730Z,14.13
2023-05-10T07:29:22.800Z,14.23
2023-05-10T07:34:26.773Z,14.04
2023-05-10T07:39:32.213Z,14.26
2023-05-10T07:44:36.163Z,14.66
2023-05-10T07:49:40.228Z,14.74
2023-05-10T07:54:45.674Z,14.76
2023-05-10T07:59:49.547Z,15.44
2023-05-10T08:04:55.015Z,15.36
2023-05-10T08:10:00.256Z,15.47
2023-05-10T08:15:04.745Z,14.53
2023-05-10T08:20:09.674Z,15.18
2023-05-10T08:25:17.052Z,14.73
2023-05-10T08:30:21.419Z,14.80
2023-05-10T08:35:25.553Z,15.20
2023-05-10T08:40:31.290Z,14.98
2023-05-10T08:45:35.797Z,15.31
2023-05-10T08:50:41.625Z,15.21
2023-05-10T08:55:47.273Z,15.34
2023-05-10T09:00:53.493Z,15.40
2023-05-10T09:05:57.931Z,16.49
2023-05-10T09:11:03.943Z,16.36
2023-05-10T09:16:20.481Z,16.94
2023-05-10T09:21:27.528Z,16.16
2023-05-10T09:26:33.001Z,16.01
2023-05-10T09:31:48.884Z,16.03
2023-05-10T09:36:56.318Z,15.80
2023-05-10T09:42:04.830Z,16.21
2023-05-10T09:47:08.794Z,16.17
2023-05-10T09:52:12.687Z,16.43
2023-05-10T09:57:23.476Z,16.92
2023-05-10T10:02:31.377Z,17.19
2023-05-10T10:07:36.328Z,16.37
2023-05-10T10:12:43.980Z,16.27
2023-05-10T10:17:48.936Z,16.58
2023-05-10T10:22:53.623Z,16.85
2023-05-10T10:28:11.488Z,16.34
2023-05-10T10:33:42.453Z,16.66
2023-05-10T10:39:02.313Z,17.15
2023-05-10T10:44:27.065Z,17.01
2023-05-10T10:49:34.628Z,17.13
2023-05-10T10:54:39.336Z,16.75
2023-05-10T10:59:48.049Z,17.29
2023-05-10T11:04:52.005Z,17.16
2023-05-10T11:10:06.121Z,17.12
2023-05-10T11:15:12.630Z,17.79
2023-05-10T11:20:17.276Z,17.44
2023-05-10T11:25:21.958Z,19.11
2023-05-10T11:30:27.601Z,18.66
2023-05-10T11:35:31.767Z,20.87
2023-05-10T11:40:36.081Z,20.22
2023-05-10T11:45:43.627Z,20.94
2023-05-10T11:50:48.485Z,19.67
2023-05-10T11:55:52.567Z,20.56
2023-05-10T12:00:58.483Z,20.48
2023-05-10T12:06:05.696Z,21.07
2023-05-10T12:11:11.409Z,20.57
2023-05-10T12:16:18.695Z,20.39
2023-05-10T12:21:23.524Z,20.80
2023-05-10T12:26:28.508Z,20.71
2023-05-10T12:31:33.917Z,21.69
2023-05-10T12:36:41.042Z,22.07
2023-05-10T12:41:45.290Z,21.39
2023-05-10T12:46:50.996Z,20.79
2023-05-10T12:51:55.117Z,20.94
2023-05-10T12:56:59.083Z,21.61
2023-05-10T13:02:04.508Z,21.29
2023-05-10T13:07:08.798Z,21.41
2023-05-10T13:12:12.966Z,21.72
2023-05-10T13:17:18.355Z,22.04
2023-05-10T13:22:32.581Z,20.21
2023-05-10T13:27:43.680Z,20.25
2023-05-10T13:32:49.149Z,20.74
2023-05-10T13:37:56.342Z,21.70
2023-05-10T13:43:00.364Z,21.63
2023-05-10T13:48:06.303Z,20.75
2023-05-10T13:53:10.389Z,19.38
2023-05-10T13:58:14.470Z,19.57
2023-05-10T14:03:19.969Z,19.87
2023-05-10T14:08:24.203Z,19.86
2023-05-10T14:13:28.628Z,19.50
2023-05-10T14:18:34.075Z,19.26
2023-05-10T14:23:38.062Z,19.01
2023-05-10T14:28:42.156Z,19.42
2023-05-10T14:33:47.790Z,19.56
2023-05-10T14:38:51.891Z,18.73
2023-05-10T14:43:56.367Z,19.14
2023-05-10T14:49:01.697Z,19.63
2023-05-10T14:54:05.750Z,19.70
2023-05-10T14:59:09.939Z,19.90
2023-05-10T15:04:17.562Z,20.09
2023-05-10T15:09:22.131Z,19.97
2023-05-10T15:14:26.167Z,20.20
2023-05-10T15:19:31.527Z,19.91
2023-05-10T15:24:35.492Z,19.63
2023-05-10T15:29:39.581Z,20.06
2023-05-10T15:34:45.094Z,19.54
2023-05-10T15:39:48.794Z,18.91
2023-05-10T15:45:12.420Z,18.94
2023-05-10T15:50:18.380Z,18.30
2023-05-10T15:55:22.353Z,18.83
2023-05-10T16:00:26.484Z,18.03
2023-05-10T16:05:33.688Z,16.94
2023-05-10T16:10:38.175Z,16.02
2023-05-10T16:15:42.116Z,15.81
2023-05-10T16:20:47.609Z,15.33
2023-05-10T16:25:51.495Z,15.20
2023-05-10T16:30:55.450Z,15.42
2023-05-10T16:36:00.756Z,16.02
2023-05-10T16:41:04.951Z,15.63
2023-05-10T16:46:12.523Z,15.36
2023-05-10T16:51:17.883Z,15.62
2023-05-10T16:56:23.415Z,15.60
2023-05-10T17:01:27.602Z,15.24
2023-05-10T17:06:33.923Z,14.54
2023-05-10T17:11:38.028Z,14.84
2023-05-10T17:16:42.820Z,14.69
2023-05-10T17:21:48.191Z,14.72
2023-05-10T17:26:53.325Z,14.42
2023-05-10T17:32:00.776Z,14.46
2023-05-10T17:37:06.404Z,15.03
2023-05-10T17:42:10.311Z,14.05
2023-05-10T17:47:14.336Z,13.82
2023-05-10T17:52:19.948Z,14.34
2023-05-10T17:57:24.800Z,14.15
2023-05-10T18:02:28.776Z,14.29
2023-05-10T18:07:35.913Z,13.54
2023-05-10T18:12:39.956Z,13.77
2023-05-10T18:17:44.124Z,13.43
2023-05-10T18:22:49.896Z,13.05
2023-05-10T18:27:53.976Z,13.21
2023-05-10T18:32:58.149Z,13.05
2023-05-10T18:38:03.687Z,12.78
2023-05-10T18:43:07.595Z,13.04
2023-05-10T18:48:11.522Z,13.28
2023-05-10T18:53:17.104Z,13.38
2023-05-10T18:58:21.214Z,12.86
2023-05-10T19:03:25.676Z,12.85
2023-05-10T19:08:31.229Z,12.76
2023-05-10T19:13:35.304Z,12.55
2023-05-10T19:18:40.584Z,12.49
2023-05-10T19:23:45.884Z,12.27
2023-05-10T19:28:52.456Z,12.42
2023-05-10T19:33:58.052Z,11.99
2023-05-10T19:39:05.989Z,11.96
2023-05-10T19:44:09.951Z,12.16
2023-05-10T19:49:13.880Z,12.50
2023-05-10T19:54:19.258Z,12.03
2023-05-10T19:59:23.516Z,12.02
2023-05-10T20:04:28.948Z,12.16
2023-05-10T20:09:34.727Z,12.27
2023-05-10T20:14:38.636Z,11.99
2023-05-10T20:19:42.817Z,11.97
2023-05-10T20:24:48.557Z,12.07
2023-05-10T20:29:52.375Z,11.41
2023-05-10T20:34:56.509Z,11.56
2023-05-10T20:40:02.066Z,11.84
2023-05-10T20:45:07.279Z,11.36
2023-05-10T20:50:12.366Z,11.01
2023-05-10T20:55:17.783Z,10.90
2023-05-10T21:00:22.294Z,10.84
2023-05-10T21:05:26.430Z,10.83
2023-05-10T21:10:31.782Z,10.98
2023-05-10T21:15:35.780Z,10.30
2023-05-10T21:20:39.674Z,10.38
2023-05-10T21:25:45.112Z,10.20
2023-05-10T21:30:49.099Z,10.00
2023-05-10T21:35:53.463Z,10.09
2023-05-10T21:40:58.738Z,10.18
2023-05-10T21:46:03.053Z,9.47
2023-05-10T21:51:07.166Z,9.59
2023-05-10T21:56:12.776Z,9.72
2023-05-10T22:01:18.052Z,9.95
2023-05-10T22:06:21.980Z,9.97
2023-05-10T22:11:27.510Z,9.46
2023-05-10T22:16:31.696Z,9.99
2023-05-10T22:21:35.714Z,9.42
2023-05-10T22:26:40.937Z,9.57
2023-05-10T22:31:44.906Z,9.20
2023-05-10T22:36:49.647Z,8.95
2023-05-10T22:41:54.922Z,9.04
2023-05-10T22:46:58.862Z,8.63
2023-05-10T22:52:02.865Z,8.37
2023-05-10T22:57:08.369Z,8.02
2023-05-10T23:02:14.329Z,7.63
2023-05-10T23:07:18.306Z,8.10
2023-05-10T23:12:23.533Z,8.29
2023-05-10T23:17:27.564Z,7.67
2023-05-10T23:22:31.515Z,7.41
2023-05-10T23:27:36.834Z,7.94
2023-05-10T23:32:40.721Z,7.89
2023-05-10T23:37:44.758Z,8.41
2023-05-10T23:42:50.160Z,8.11
2023-05-10T23:47:54.298Z,8.16
2023-05-10T23:52:58.333Z,7.92
2023-05-10T23:58:03.706Z,8.78
